createdAt,value
2017-01-04T00:00:31.678Z,98.73
2017-01-04T00:01:31.663Z,98.73
2017-01-04T00:02:31.652Z,98.82
2017-01-04T00:03:31.641Z,98.44
2017-01-04T00:04:31.627Z,98.82
2017-01-04T00:05:31.615Z,99.01
2017-01-04T00:06:31.601Z,99.58
2017-01-04T00:07:31.592Z,99.39
2017-01-04T00:08:31.578Z,99.3
2017-01-04T00:09:31.565Z,99.11
2017-01-04T00:10:31.555Z,98.92
2017-01-04T00:11:31.541Z,99.11
2017-01-04T00:12:31.531Z,98.92
2017-01-04T00:13:31.516Z,99.39
2017-01-04T00:14:31.505Z,99.68
2017-01-04T00:15:31.493Z,98.92
2017-01-04T00:16:31.480Z,99.01
2017-01-04T00:17:31.467Z,99.2
2017-01-04T00:18:31.459Z,99.11
2017-01-04T00:19:31.444Z,99.2
2017-01-04T00:20:31.435Z,98.82
2017-01-04T00:21:31.421Z,99.49
2017-01-04T00:22:31.407Z,99.58
2017-01-04T00:23:31.397Z,98.82
2017-01-04T00:24:31.383Z,98.92
2017-01-04T00:25:31.371Z,98.07
2017-01-04T00:26:31.361Z,98.54
2017-01-04T00:27:31.347Z,98.63
2017-01-04T00:28:31.334Z,98.82
2017-01-04T00:29:31.327Z,98.92
2017-01-04T00:30:31.310Z,98.16
2017-01-04T00:31:31.299Z,98.25
2017-01-04T00:32:31.677Z,98.54
2017-01-04T00:33:31.282Z,98.63
2017-01-04T00:34:31.270Z,98.92
2017-01-04T00:35:31.248Z,98.73
2017-01-04T00:36:31.237Z,98.25
2017-01-04T00:37:31.227Z,98.63
2017-01-04T00:38:31.216Z,98.35
2017-01-04T00:39:31.201Z,98.73
2017-01-04T00:40:31.190Z,98.25
2017-01-04T00:41:31.178Z,98.73
2017-01-04T00:42:31.170Z,97.88
2017-01-04T00:43:31.152Z,98.73
2017-01-04T00:44:31.140Z,98.16
2017-01-04T00:45:31.128Z,97.78
2017-01-04T00:46:31.115Z,98.16
2017-01-04T00:47:31.104Z,98.44
2017-01-04T00:48:31.119Z,98.35
2017-01-04T00:49:31.081Z,98.73
2017-01-04T00:50:31.069Z,98.44
2017-01-04T00:51:31.055Z,98.73
2017-01-04T00:52:31.046Z,98.16
2017-01-04T00:53:31.033Z,98.44
2017-01-04T00:54:31.020Z,98.07
2017-01-04T00:55:31.011Z,98.54
2017-01-04T00:56:30.995Z,99.11
2017-01-04T00:57:30.983Z,99.2
2017-01-04T00:58:30.972Z,99.68
2017-01-04T00:59:30.965Z,99.3
2017-01-04T01:00:30.946Z,99.39
2017-01-04T01:01:30.935Z,99.58
2017-01-04T01:02:30.923Z,99.2
2017-01-04T01:03:30.910Z,98.35
2017-01-04T01:04:30.897Z,98.63
2017-01-04T01:05:30.890Z,98.92
2017-01-04T01:06:30.874Z,99.3
2017-01-04T01:07:30.862Z,98.92
2017-01-04T01:08:30.854Z,98.92
2017-01-04T01:09:30.838Z,98.92
2017-01-04T01:10:30.863Z,99.2
2017-01-04T01:11:30.818Z,98.82
2017-01-04T01:12:30.801Z,99.68
2017-01-04T01:13:30.790Z,99.01
2017-01-04T01:14:30.780Z,99.2
2017-01-04T01:15:30.765Z,99.2
2017-01-04T01:16:30.753Z,98.63
2017-01-04T01:17:30.744Z,98.54
2017-01-04T01:18:30.730Z,98.49
2017-01-04T01:19:30.718Z,98.44
2017-01-04T01:20:30.708Z,98.21
2017-01-04T01:21:30.692Z,98.68
2017-01-04T01:22:30.682Z,98.59
2017-01-04T01:23:30.669Z,98.97
2017-01-04T01:24:30.660Z,98.4
2017-01-04T01:25:30.645Z,97.55
2017-01-04T01:26:30.639Z,97.55
2017-01-04T01:27:30.621Z,97.55
2017-01-04T01:28:30.610Z,97.36
2017-01-04T01:29:30.600Z,96.88
2017-01-04T01:30:30.586Z,96.69
2017-01-04T01:31:30.575Z,96.78
2017-01-04T01:32:30.565Z,96.97
2017-01-04T01:33:30.552Z,97.17
2017-01-04T01:34:30.539Z,96.5
2017-01-04T01:35:30.528Z,97.07
2017-01-04T01:36:30.516Z,96.31
2017-01-04T01:37:30.507Z,95.84
2017-01-04T01:38:30.493Z,95.65
2017-01-04T01:39:30.480Z,95.07
2017-01-04T01:40:30.468Z,95.46
2017-01-04T01:41:30.458Z,95.27
2017-01-04T01:42:30.444Z,95.55
2017-01-04T01:43:30.433Z,95.46
2017-01-04T01:44:30.421Z,95.84
2017-01-04T01:45:30.407Z,95.84
2017-01-04T01:46:30.402Z,95.84
2017-01-04T01:47:30.385Z,95.93
2017-01-04T01:48:30.373Z,96.88
2017-01-04T01:49:30.363Z,97.17
2017-01-04T01:50:30.348Z,96.97
2017-01-04T01:51:30.340Z,97.64
2017-01-04T01:52:30.328Z,97.45
2017-01-04T01:53:30.315Z,97.26
2017-01-04T01:54:30.303Z,97.83
2017-01-04T01:55:30.291Z,97.74
2017-01-04T01:56:30.280Z,97.92
2017-01-04T01:57:30.267Z,98.4
2017-01-04T01:58:30.255Z,98.59
2017-01-04T01:59:30.245Z,98.3
2017-01-04T02:00:30.232Z,98.59
2017-01-04T02:01:30.222Z,99.44
2017-01-04T02:02:30.208Z,99.99
2017-01-04T02:03:30.196Z,99.99
2017-01-04T02:04:30.185Z,99.99
2017-01-04T02:05:30.172Z,99.99
2017-01-04T02:06:30.162Z,99.99
2017-01-04T02:07:30.147Z,99.99
2017-01-04T02:08:30.138Z,99.99
2017-01-04T02:09:30.127Z,99.99
2017-01-04T02:10:30.113Z,99.99
2017-01-04T02:11:30.100Z,99.99
2017-01-04T02:12:30.090Z,99.99
2017-01-04T02:13:30.076Z,99.99
2017-01-04T02:14:30.067Z,99.99
2017-01-04T02:15:30.436Z,99.99
2017-01-04T02:16:30.039Z,99.99
2017-01-04T02:17:30.025Z,99.99
2017-01-04T02:18:30.012Z,99.99
2017-01-04T02:19:30.003Z,99.99
2017-01-04T02:20:29.988Z,99.99
2017-01-04T02:21:29.978Z,99.99
2017-01-04T02:22:29.964Z,99.99
2017-01-04T02:23:29.948Z,99.99
2017-01-04T02:24:29.973Z,99.99
2017-01-04T02:25:29.921Z,99.99
2017-01-04T02:26:29.909Z,99.99
2017-01-04T02:27:29.898Z,99.99
2017-01-04T02:28:29.881Z,99.99
2017-01-04T02:29:29.869Z,99.99
2017-01-04T02:30:29.858Z,99.99
2017-01-04T02:31:29.844Z,99.99
2017-01-04T02:32:29.828Z,99.99
2017-01-04T02:33:29.814Z,99.99
2017-01-04T02:34:29.802Z,99.99
2017-01-04T02:35:29.794Z,99.99
2017-01-04T02:36:29.772Z,99.99
2017-01-04T02:37:29.763Z,99.99
2017-01-04T02:38:29.748Z,99.99
2017-01-04T02:39:29.733Z,99.99
2017-01-04T02:40:29.719Z,99.99
2017-01-04T02:41:29.712Z,99.99
2017-01-04T02:42:29.692Z,99.99
2017-01-04T02:43:29.681Z,99.99
2017-01-04T02:44:29.665Z,99.99
2017-01-04T02:45:29.652Z,99.99
2017-01-04T02:46:29.639Z,99.99
2017-01-04T02:47:29.626Z,99.99
2017-01-04T02:48:29.612Z,99.99
2017-01-04T02:49:29.598Z,99.99
2017-01-04T02:50:29.970Z,99.99
2017-01-04T02:51:29.570Z,99.99
2017-01-04T02:52:29.562Z,99.99
2017-01-04T02:53:29.543Z,99.99
2017-01-04T02:54:29.528Z,99.99
2017-01-04T02:55:29.516Z,99.99
2017-01-04T02:56:29.502Z,99.99
2017-01-04T02:57:29.490Z,99.99
2017-01-04T02:58:29.475Z,99.99
2017-01-04T02:59:29.462Z,99.99
2017-01-04T03:00:29.447Z,99.99
2017-01-04T03:01:29.434Z,99.99
2017-01-04T03:02:29.422Z,99.99
2017-01-04T03:03:29.407Z,99.99
2017-01-04T03:04:29.394Z,99.99
2017-01-04T03:05:29.385Z,99.99
2017-01-04T03:06:29.367Z,99.99
2017-01-04T03:07:29.352Z,99.99
2017-01-04T03:08:29.340Z,99.99
2017-01-04T03:09:29.326Z,99.99
2017-01-04T03:10:29.312Z,99.99
2017-01-04T03:11:29.299Z,99.99
2017-01-04T03:12:29.293Z,99.99
2017-01-04T03:13:29.272Z,99.99
2017-01-04T03:14:29.284Z,99.99
2017-01-04T03:15:29.246Z,99.99
2017-01-04T03:16:29.230Z,99.99
2017-01-04T03:17:29.221Z,99.99
2017-01-04T03:18:29.205Z,99.99
2017-01-04T03:19:29.195Z,99.99
2017-01-04T03:20:29.177Z,99.99
2017-01-04T03:21:29.165Z,99.99
2017-01-04T03:22:29.152Z,99.99
2017-01-04T03:23:29.137Z,99.99
2017-01-04T03:24:29.124Z,99.99
2017-01-04T03:25:29.111Z,99.99
2017-01-04T03:26:29.097Z,99.99
2017-01-04T03:27:29.082Z,99.99
2017-01-04T03:28:29.071Z,99.99
2017-01-04T03:29:29.058Z,99.99
2017-01-04T03:30:29.043Z,99.99
2017-01-04T03:31:29.030Z,99.99
2017-01-04T03:32:29.016Z,99.99
2017-01-04T03:33:29.004Z,99.99
2017-01-04T03:34:28.988Z,99.99
2017-01-04T03:35:28.977Z,99.99
2017-01-04T03:36:28.965Z,99.99
2017-01-04T03:37:28.950Z,99.99
2017-01-04T03:38:28.937Z,99.99
2017-01-04T03:39:28.924Z,99.99
2017-01-04T03:40:28.909Z,99.99
2017-01-04T03:41:28.895Z,99.99
2017-01-04T03:42:28.883Z,99.99
2017-01-04T03:43:28.868Z,99.99
2017-01-04T03:44:28.856Z,99.99
2017-01-04T03:45:28.843Z,99.99
2017-01-04T03:46:28.828Z,99.99
2017-01-04T03:47:28.816Z,99.99
2017-01-04T03:48:28.802Z,99.99
2017-01-04T03:49:28.788Z,99.99
2017-01-04T03:50:28.776Z,99.99
2017-01-04T03:51:28.761Z,99.99
2017-01-04T03:52:28.748Z,99.99
2017-01-04T03:53:28.733Z,99.99
2017-01-04T03:54:28.721Z,99.99
2017-01-04T03:55:28.713Z,99.99
2017-01-04T03:56:28.693Z,99.99
2017-01-04T03:57:28.679Z,99.99
2017-01-04T03:58:28.667Z,99.99
2017-01-04T03:59:28.654Z,99.99
2017-01-04T04:00:28.640Z,99.99
2017-01-04T04:01:28.628Z,99.99
2017-01-04T04:02:28.612Z,99.99
2017-01-04T04:03:28.599Z,99.99
2017-01-04T04:04:28.585Z,99.99
2017-01-04T04:05:28.573Z,99.99
2017-01-04T04:06:28.570Z,99.99
2017-01-04T04:07:28.544Z,99.99
2017-01-04T04:08:28.533Z,99.99
2017-01-04T04:09:28.519Z,99.99
2017-01-04T04:10:28.506Z,99.99
2017-01-04T04:11:28.492Z,99.99
2017-01-04T04:12:28.477Z,99.99
2017-01-04T04:13:28.466Z,99.99
2017-01-04T04:14:28.450Z,99.99
2017-01-04T04:15:28.465Z,99.99
2017-01-04T04:16:28.425Z,99.99
2017-01-04T04:17:28.411Z,99.99
2017-01-04T04:18:28.397Z,99.99
2017-01-04T04:19:28.384Z,99.99
2017-01-04T04:20:28.371Z,99.99
2017-01-04T04:21:28.363Z,99.99
2017-01-04T04:22:28.344Z,99.99
2017-01-04T04:23:28.333Z,99.99
2017-01-04T04:24:28.349Z,99.99
2017-01-04T04:25:28.305Z,99.99
2017-01-04T04:26:28.294Z,99.99
2017-01-04T04:27:28.277Z,99.99
2017-01-04T04:28:28.265Z,99.99
2017-01-04T04:29:28.249Z,99.99
2017-01-04T04:30:28.237Z,99.99
2017-01-04T04:31:28.222Z,99.99
2017-01-04T04:32:28.211Z,99.99
2017-01-04T04:33:28.196Z,99.99
2017-01-04T04:34:28.181Z,99.99
2017-01-04T04:35:28.170Z,99.99
2017-01-04T04:36:28.153Z,99.99
2017-01-04T04:37:28.141Z,99.99
2017-01-04T04:38:28.127Z,99.99
2017-01-04T04:39:28.113Z,99.99
2017-01-04T04:40:28.101Z,99.99
2017-01-04T04:41:28.084Z,99.99
2017-01-04T04:42:28.071Z,99.99
2017-01-04T04:43:28.061Z,99.99
2017-01-04T04:44:28.045Z,99.99
2017-01-04T04:45:28.031Z,99.99
2017-01-04T04:46:28.018Z,99.99
2017-01-04T04:47:28.003Z,99.99
2017-01-04T04:48:27.988Z,99.99
2017-01-04T04:49:27.976Z,99.99
2017-01-04T04:50:27.961Z,99.99
2017-01-04T04:51:27.946Z,99.99
2017-01-04T04:52:27.934Z,99.99
2017-01-04T04:53:27.919Z,99.99
2017-01-04T04:54:27.907Z,99.99
2017-01-04T04:55:27.891Z,99.99
2017-01-04T04:56:27.876Z,99.99
2017-01-04T04:57:27.863Z,99.99
2017-01-04T04:58:27.850Z,99.99
2017-01-04T04:59:27.837Z,99.99
2017-01-04T05:00:27.821Z,99.99
2017-01-04T05:01:27.807Z,99.99
2017-01-04T05:02:27.791Z,99.99
2017-01-04T05:03:27.787Z,99.99
2017-01-04T05:04:27.763Z,99.99
2017-01-04T05:05:27.752Z,99.99
2017-01-04T05:06:27.737Z,99.99
2017-01-04T05:07:27.722Z,99.99
2017-01-04T05:08:27.707Z,99.99
2017-01-04T05:09:27.698Z,99.99
2017-01-04T05:10:27.678Z,99.99
2017-01-04T05:11:27.665Z,99.99
2017-01-04T05:12:27.950Z,99.99
2017-01-04T05:13:27.638Z,99.99
2017-01-04T05:14:27.625Z,99.99
2017-01-04T05:15:27.607Z,99.99
2017-01-04T05:16:27.596Z,99.99
2017-01-04T05:17:27.579Z,99.99
2017-01-04T05:18:27.564Z,99.99
2017-01-04T05:19:27.551Z,99.99
2017-01-04T05:20:27.535Z,99.99
2017-01-04T05:21:27.523Z,99.99
2017-01-04T05:22:27.507Z,99.99
2017-01-04T05:23:27.495Z,99.99
2017-01-04T05:24:27.477Z,99.99
2017-01-04T05:25:27.464Z,99.99
2017-01-04T05:26:27.449Z,99.99
2017-01-04T05:27:27.436Z,99.99
2017-01-04T05:28:27.422Z,99.99
2017-01-04T05:29:27.405Z,99.99
2017-01-04T05:30:27.394Z,99.99
2017-01-04T05:31:27.377Z,99.99
2017-01-04T05:32:27.363Z,99.99
2017-01-04T05:33:27.349Z,99.99
2017-01-04T05:34:27.335Z,99.99
2017-01-04T05:35:27.318Z,99.99
2017-01-04T05:36:27.305Z,99.99
2017-01-04T05:37:27.292Z,99.99
2017-01-04T05:38:27.278Z,99.99
2017-01-04T05:39:27.263Z,99.99
2017-01-04T05:40:27.246Z,99.99
2017-01-04T05:41:27.238Z,99.99
2017-01-04T05:42:27.217Z,99.99
2017-01-04T05:43:27.202Z,99.99
2017-01-04T05:44:27.189Z,99.99
2017-01-04T05:45:27.175Z,99.99
2017-01-04T05:46:27.159Z,99.99
2017-01-04T05:47:27.144Z,99.99
2017-01-04T05:48:27.131Z,99.99
2017-01-04T05:49:27.119Z,99.99
2017-01-04T05:50:27.100Z,99.99
2017-01-04T05:51:27.087Z,99.99
2017-01-04T05:52:27.073Z,99.99
2017-01-04T05:53:27.060Z,99.99
2017-01-04T05:54:27.043Z,99.99
2017-01-04T05:55:27.032Z,99.99
2017-01-04T05:56:27.016Z,99.99
2017-01-04T05:57:26.999Z,99.99
2017-01-04T05:58:26.988Z,99.99
2017-01-04T05:59:26.973Z,99.99
2017-01-04T06:00:26.958Z,99.99
2017-01-04T06:01:26.943Z,99.99
2017-01-04T06:02:26.928Z,99.99
2017-01-04T06:03:26.917Z,99.99
2017-01-04T06:04:26.903Z,99.99
2017-01-04T06:05:26.887Z,99.99
2017-01-04T06:06:26.874Z,99.99
2017-01-04T06:07:26.858Z,99.99
2017-01-04T06:08:26.845Z,99.99
2017-01-04T06:09:26.837Z,99.99
2017-01-04T06:10:26.816Z,99.99
2017-01-04T06:11:26.801Z,99.99
2017-01-04T06:12:26.787Z,99.99
2017-01-04T06:13:26.775Z,99.99
2017-01-04T06:14:26.760Z,99.99
2017-01-04T06:15:26.746Z,99.99
2017-01-04T06:16:26.732Z,99.99
2017-01-04T06:17:26.717Z,99.99
2017-01-04T06:18:26.702Z,99.99
2017-01-04T06:19:26.689Z,99.99
2017-01-04T06:20:26.677Z,99.99
2017-01-04T06:21:26.661Z,99.99
2017-01-04T06:22:26.649Z,99.99
2017-01-04T06:23:26.636Z,99.99
2017-01-04T06:24:26.619Z,99.99
2017-01-04T06:25:26.607Z,99.99
2017-01-04T06:26:26.592Z,99.99
2017-01-04T06:27:26.578Z,99.99
2017-01-04T06:28:26.564Z,99.99
2017-01-04T06:29:26.551Z,99.99
2017-01-04T06:30:26.539Z,99.99
2017-01-04T06:31:26.523Z,99.99
2017-01-04T06:32:26.507Z,99.99
2017-01-04T06:33:26.493Z,99.99
2017-01-04T06:34:26.867Z,99.99
2017-01-04T06:35:26.467Z,99.99
2017-01-04T06:36:26.454Z,99.99
2017-01-04T06:37:26.439Z,99.99
2017-01-04T06:38:26.425Z,99.99
2017-01-04T06:39:26.412Z,99.99
2017-01-04T06:40:26.401Z,99.99
2017-01-04T06:41:26.385Z,99.99
2017-01-04T06:42:26.372Z,99.99
2017-01-04T06:43:26.359Z,99.99
2017-01-04T06:44:26.344Z,99.99
2017-01-04T06:45:26.332Z,99.99
2017-01-04T06:46:26.318Z,99.99
2017-01-04T06:47:26.305Z,99.99
2017-01-04T06:48:26.290Z,99.99
2017-01-04T06:49:26.280Z,99.99
2017-01-04T06:50:26.265Z,99.99
2017-01-04T06:51:26.251Z,99.99
2017-01-04T06:52:26.236Z,99.99
2017-01-04T06:53:26.224Z,99.99
2017-01-04T06:54:26.211Z,99.99
2017-01-04T06:55:26.196Z,99.99
2017-01-04T06:56:26.184Z,99.99
2017-01-04T06:57:26.171Z,99.99
2017-01-04T06:58:26.158Z,99.99
2017-01-04T06:59:26.144Z,99.99
2017-01-04T07:00:26.134Z,99.99
2017-01-04T07:01:26.118Z,99.99
2017-01-04T07:02:26.104Z,99.99
2017-01-04T07:03:26.098Z,99.99
2017-01-04T07:04:26.077Z,99.99
2017-01-04T07:05:26.066Z,99.99
2017-01-04T07:06:26.052Z,99.99
2017-01-04T07:07:26.039Z,99.99
2017-01-04T07:08:26.026Z,99.99
2017-01-04T07:09:26.017Z,99.99
2017-01-04T07:10:25.998Z,99.99
2017-01-04T07:11:25.986Z,99.99
2017-01-04T07:12:25.973Z,99.99
2017-01-04T07:13:25.959Z,99.99
2017-01-04T07:14:25.948Z,99.99
2017-01-04T07:15:25.937Z,99.99
2017-01-04T07:16:25.922Z,99.99
2017-01-04T07:17:25.910Z,99.99
2017-01-04T07:18:25.895Z,99.99
2017-01-04T07:19:25.882Z,99.99
2017-01-04T07:20:25.870Z,99.99
2017-01-04T07:21:25.855Z,99.99
2017-01-04T07:22:25.844Z,99.99
2017-01-04T07:23:25.832Z,99.99
2017-01-04T07:24:25.816Z,99.99
2017-01-04T07:25:25.805Z,99.99
2017-01-04T07:26:25.791Z,99.99
2017-01-04T07:27:25.780Z,99.99
2017-01-04T07:28:25.767Z,99.99
2017-01-04T07:29:25.754Z,99.99
2017-01-04T07:30:25.739Z,99.99
2017-01-04T07:31:25.729Z,99.99
2017-01-04T07:32:25.714Z,99.99
2017-01-04T07:33:25.702Z,99.99
2017-01-04T07:34:25.688Z,99.99
2017-01-04T07:35:25.675Z,99.99
2017-01-04T07:36:25.664Z,99.99
2017-01-04T07:37:25.652Z,99.99
2017-01-04T07:38:25.638Z,99.99
2017-01-04T07:39:25.623Z,99.99
2017-01-04T07:40:25.610Z,99.99
2017-01-04T07:41:25.599Z,99.99
2017-01-04T07:42:25.588Z,99.99
2017-01-04T07:43:25.575Z,99.99
2017-01-04T07:44:25.560Z,99.99
2017-01-04T07:45:25.550Z,99.99
2017-01-04T07:46:25.534Z,99.99
2017-01-04T07:47:25.522Z,99.99
2017-01-04T07:48:25.508Z,99.99
2017-01-04T07:49:25.500Z,99.99
2017-01-04T07:50:25.482Z,99.99
2017-01-04T07:51:25.471Z,99.99
2017-01-04T07:52:25.462Z,99.99
2017-01-04T07:53:25.445Z,99.99
2017-01-04T07:54:25.434Z,99.99
2017-01-04T07:55:25.421Z,99.99
2017-01-04T07:56:25.407Z,99.99
2017-01-04T07:57:25.397Z,99.99
2017-01-04T07:58:25.384Z,99.99
2017-01-04T07:59:25.374Z,99.99
2017-01-04T08:00:25.358Z,99.99
2017-01-04T08:01:25.345Z,99.99
2017-01-04T08:02:25.334Z,99.99
2017-01-04T08:03:25.319Z,99.99
2017-01-04T08:04:25.307Z,99.99
2017-01-04T08:05:25.293Z,99.99
2017-01-04T08:06:25.282Z,99.99
2017-01-04T08:07:25.271Z,99.99
2017-01-04T08:08:25.259Z,99.99
2017-01-04T08:09:25.245Z,99.99
2017-01-04T08:10:25.233Z,99.99
2017-01-04T08:11:25.221Z,99.99
2017-01-04T08:12:25.207Z,99.99
2017-01-04T08:13:25.196Z,99.99
2017-01-04T08:14:25.182Z,99.99
2017-01-04T08:15:25.171Z,99.99
2017-01-04T08:16:25.158Z,99.99
2017-01-04T08:17:25.146Z,99.99
2017-01-04T08:18:25.138Z,99.99
2017-01-04T08:19:25.119Z,99.99
2017-01-04T08:20:25.110Z,99.99
2017-01-04T08:21:25.095Z,99.99
2017-01-04T08:22:25.083Z,99.99
2017-01-04T08:23:25.456Z,99.99
2017-01-04T08:24:25.058Z,99.99
2017-01-04T08:25:25.047Z,99.99
2017-01-04T08:26:25.037Z,99.99
2017-01-04T08:27:25.020Z,99.99
2017-01-04T08:28:25.010Z,99.99
2017-01-04T08:29:25.000Z,99.99
2017-01-04T08:30:24.983Z,99.99
2017-01-04T08:31:24.974Z,99.99
2017-01-04T08:32:24.960Z,99.99
2017-01-04T08:33:24.949Z,99.99
2017-01-04T08:34:24.938Z,99.99
2017-01-04T08:35:24.927Z,99.99
2017-01-04T08:36:24.914Z,99.99
2017-01-04T08:37:24.901Z,99.99
2017-01-04T08:38:24.888Z,99.99
2017-01-04T08:39:24.879Z,99.99
2017-01-04T08:40:24.866Z,99.99
2017-01-04T08:41:24.854Z,99.99
2017-01-04T08:42:24.843Z,99.99
2017-01-04T08:43:24.832Z,99.99
2017-01-04T08:44:24.819Z,99.99
2017-01-04T08:45:24.809Z,99.99
2017-01-04T08:46:24.795Z,99.99
2017-01-04T08:47:24.785Z,99.99
2017-01-04T08:48:24.772Z,99.99
2017-01-04T08:49:24.759Z,99.99
2017-01-04T08:50:24.751Z,99.99
2017-01-04T08:51:24.736Z,99.99
2017-01-04T08:52:25.114Z,99.99
2017-01-04T08:53:24.714Z,99.99
2017-01-04T08:54:24.705Z,99.99
2017-01-04T08:55:24.693Z,99.99
2017-01-04T08:56:24.682Z,99.99
2017-01-04T08:57:24.670Z,99.99
2017-01-04T08:58:24.659Z,99.99
2017-01-04T08:59:24.646Z,99.99
2017-01-04T09:00:25.022Z,99.99
2017-01-04T09:01:24.636Z,99.99
2017-01-04T09:02:24.616Z,99.99
2017-01-04T09:03:24.603Z,99.99
2017-01-04T09:04:24.590Z,99.99
2017-01-04T09:05:24.580Z,99.99
2017-01-04T09:06:24.573Z,99.99
2017-01-04T09:07:24.561Z,99.99
2017-01-04T09:08:24.548Z,99.99
2017-01-04T09:09:24.544Z,99.99
2017-01-04T09:10:24.524Z,99.99
2017-01-04T09:11:24.514Z,99.99
2017-01-04T09:12:24.502Z,99.99
2017-01-04T09:13:24.492Z,99.99
2017-01-04T09:14:24.480Z,99.99
2017-01-04T09:15:24.471Z,99.99
2017-01-04T09:16:24.456Z,99.99
2017-01-04T09:17:24.447Z,99.99
2017-01-04T09:18:24.436Z,99.99
2017-01-04T09:19:24.427Z,99.99
2017-01-04T09:20:24.414Z,99.99
2017-01-04T09:21:24.400Z,99.99
2017-01-04T09:22:24.389Z,99.99
2017-01-04T09:23:24.381Z,99.99
2017-01-04T09:24:24.368Z,99.99
2017-01-04T09:25:24.356Z,99.99
2017-01-04T09:26:24.344Z,99.99
2017-01-04T09:27:24.337Z,99.99
2017-01-04T09:28:24.324Z,99.99
2017-01-04T09:29:24.313Z,99.99
2017-01-04T09:30:24.304Z,99.99
2017-01-04T09:31:24.293Z,99.99
2017-01-04T09:32:24.279Z,99.99
2017-01-04T09:33:24.268Z,99.99
2017-01-04T09:34:24.257Z,99.99
2017-01-04T09:35:24.247Z,99.99
2017-01-04T09:36:24.233Z,99.99
2017-01-04T09:37:24.225Z,99.82
2017-01-04T09:38:24.222Z,99.99
2017-01-04T09:39:24.201Z,99.99
2017-01-04T09:40:24.196Z,99.99
2017-01-04T09:41:24.177Z,99.99
2017-01-04T09:42:24.167Z,99.99
2017-01-04T09:43:24.155Z,99.99
2017-01-04T09:44:24.144Z,99.99
2017-01-04T09:45:24.134Z,99.99
2017-01-04T09:46:24.120Z,99.99
2017-01-04T09:47:24.115Z,99.99
2017-01-04T09:48:24.100Z,99.99
2017-01-04T09:49:24.087Z,99.99
2017-01-04T09:50:24.076Z,99.99
2017-01-04T09:51:24.064Z,99.99
2017-01-04T09:52:24.053Z,99.99
2017-01-04T09:53:24.042Z,99.99
2017-01-04T09:54:24.030Z,99.99
2017-01-04T09:55:24.018Z,99.99
2017-01-04T09:56:24.010Z,99.99
2017-01-04T09:57:23.996Z,99.99
2017-01-04T09:58:23.985Z,99.99
2017-01-04T09:59:23.975Z,99.99
2017-01-04T10:00:23.963Z,99.99
2017-01-04T10:01:23.953Z,99.99
2017-01-04T10:02:23.941Z,99.99
2017-01-04T10:03:23.933Z,99.99
2017-01-04T10:04:23.919Z,99.99
2017-01-04T10:05:23.908Z,99.99
2017-01-04T10:06:23.895Z,99.99
2017-01-04T10:07:23.885Z,99.99
2017-01-04T10:08:23.874Z,99.99
2017-01-04T10:09:23.863Z,99.99
2017-01-04T10:10:23.851Z,99.99
2017-01-04T10:11:23.841Z,99.99
2017-01-04T10:12:23.827Z,99.99
2017-01-04T10:13:23.817Z,99.99
2017-01-04T10:14:23.806Z,99.99
2017-01-04T10:15:23.798Z,99.99
2017-01-04T10:16:23.785Z,99.99
2017-01-04T10:17:23.778Z,99.99
2017-01-04T10:18:23.763Z,99.99
2017-01-04T10:19:23.756Z,99.99
2017-01-04T10:20:23.741Z,99.99
2017-01-04T10:21:23.731Z,99.99
2017-01-04T10:22:23.720Z,99.99
2017-01-04T10:23:23.709Z,99.99
2017-01-04T10:24:23.698Z,99.99
2017-01-04T10:25:23.686Z,99.99
2017-01-04T10:26:23.678Z,99.99
2017-01-04T10:27:23.665Z,99.99
2017-01-04T10:28:23.656Z,99.99
2017-01-04T10:29:23.644Z,99.99
2017-01-04T10:30:23.635Z,99.99
2017-01-04T10:31:23.623Z,99.99
2017-01-04T10:32:23.611Z,99.99
2017-01-04T10:33:23.601Z,99.99
2017-01-04T10:34:23.592Z,99.99
2017-01-04T10:35:23.579Z,99.99
2017-01-04T10:36:23.570Z,99.99
2017-01-04T10:37:23.559Z,99.99
2017-01-04T10:38:23.550Z,99.99
2017-01-04T10:39:23.538Z,99.73
2017-01-04T10:40:23.529Z,99.99
2017-01-04T10:41:23.518Z,99.99
2017-01-04T10:42:23.510Z,99.35
2017-01-04T10:43:23.496Z,99.64
2017-01-04T10:44:23.486Z,99.99
2017-01-04T10:45:23.475Z,99.99
2017-01-04T10:46:23.466Z,99.99
2017-01-04T10:47:23.454Z,99.99
2017-01-04T10:48:23.446Z,99.99
2017-01-04T10:49:23.433Z,99.99
2017-01-04T10:50:23.424Z,99.99
2017-01-04T10:51:23.413Z,98.97
2017-01-04T10:52:23.403Z,98.88
2017-01-04T10:53:23.392Z,99.3
2017-01-04T10:54:23.385Z,98.16
2017-01-04T10:55:23.373Z,98.92
2017-01-04T10:56:23.361Z,98.73
2017-01-04T10:57:23.351Z,99.99
2017-01-04T10:58:23.339Z,99.97
2017-01-04T10:59:23.332Z,99.99
2017-01-04T11:00:23.317Z,99.97
2017-01-04T11:01:23.309Z,99.99
2017-01-04T11:02:23.302Z,99.99
2017-01-04T11:03:23.286Z,99.99
2017-01-04T11:04:23.276Z,99.99
2017-01-04T11:05:23.267Z,99.54
2017-01-04T11:06:23.261Z,98.97
2017-01-04T11:07:23.245Z,99.99
2017-01-04T11:08:23.235Z,98.69
2017-01-04T11:09:23.228Z,96.55
2017-01-04T11:10:23.213Z,98.64
2017-01-04T11:11:23.206Z,99.58
2017-01-04T11:12:23.191Z,98.45
2017-01-04T11:13:23.183Z,95.89
2017-01-04T11:14:23.171Z,97.02
2017-01-04T11:15:23.163Z,96.26
2017-01-04T11:16:23.151Z,96.93
2017-01-04T11:17:23.140Z,97.78
2017-01-04T11:18:23.128Z,98.07
2017-01-04T11:19:23.120Z,98.54
2017-01-04T11:20:23.109Z,97.41
2017-01-04T11:21:23.099Z,97.78
2017-01-04T11:22:23.086Z,97.78
2017-01-04T11:23:23.073Z,97.78
2017-01-04T11:24:23.065Z,98.45
2017-01-04T11:25:23.054Z,99.3
2017-01-04T11:26:23.044Z,99.3
2017-01-04T11:27:23.033Z,99.3
2017-01-04T11:28:23.022Z,98.92
2017-01-04T11:29:23.013Z,97.31
2017-01-04T11:30:22.998Z,97.78
2017-01-04T11:31:22.988Z,96.08
2017-01-04T11:32:22.981Z,96.64
2017-01-04T11:33:22.970Z,98.16
2017-01-04T11:34:22.957Z,97.97
2017-01-04T11:35:22.945Z,97.69
2017-01-04T11:36:22.934Z,98.87
2017-01-04T11:37:22.923Z,98.87
2017-01-04T11:38:22.915Z,98.21
2017-01-04T11:39:22.903Z,98.4
2017-01-04T11:40:22.917Z,99.44
2017-01-04T11:41:22.879Z,99.54
2017-01-04T11:42:22.867Z,99.44
2017-01-04T11:43:22.858Z,99.54
2017-01-04T11:44:22.844Z,99.44
2017-01-04T11:45:22.834Z,99.58
2017-01-04T11:46:22.822Z,99.54
2017-01-04T11:47:22.812Z,99.99
2017-01-04T11:48:22.800Z,99.99
2017-01-04T11:49:22.790Z,99.99
2017-01-04T11:50:23.164Z,99.99
2017-01-04T11:51:22.765Z,99.99
2017-01-04T11:52:22.755Z,99.99
2017-01-04T11:53:22.743Z,99.99
2017-01-04T11:54:22.737Z,99.99
2017-01-04T11:55:22.722Z,99.99
2017-01-04T11:56:22.710Z,99.99
2017-01-04T11:57:22.697Z,99.99
2017-01-04T11:58:22.684Z,99.99
2017-01-04T11:59:22.677Z,99.99
2017-01-04T12:00:22.662Z,99.99
2017-01-04T12:01:22.651Z,99.99
2017-01-04T12:02:22.641Z,99.99
2017-01-04T12:03:22.628Z,99.99
2017-01-04T12:04:22.620Z,99.99
2017-01-04T12:05:22.605Z,99.99
2017-01-04T12:06:22.595Z,99.99
2017-01-04T12:07:22.584Z,99.99
2017-01-04T12:08:22.576Z,99.99
2017-01-04T12:09:22.562Z,99.99
2017-01-04T12:10:22.550Z,99.99
2017-01-04T12:11:22.538Z,99.99
2017-01-04T12:12:22.531Z,99.99
2017-01-04T12:13:22.516Z,99.99
2017-01-04T12:14:22.507Z,99.99
2017-01-04T12:15:22.498Z,99.99
2017-01-04T12:16:22.488Z,99.99
2017-01-04T12:17:22.477Z,99.99
2017-01-04T12:18:22.853Z,99.99
2017-01-04T12:19:22.455Z,99.99
2017-01-04T12:20:22.444Z,99.99
2017-01-04T12:21:22.432Z,99.99
2017-01-04T12:22:22.427Z,99.73
2017-01-04T12:23:22.413Z,99.92
2017-01-04T12:24:22.404Z,99.99
2017-01-04T12:25:22.393Z,99.99
2017-01-04T12:26:22.388Z,99.99
2017-01-04T12:27:22.376Z,99.99
2017-01-04T12:28:22.365Z,99.99
2017-01-04T12:29:22.358Z,99.99
2017-01-04T12:30:22.348Z,99.92
2017-01-04T12:31:22.335Z,98.69
2017-01-04T12:32:22.328Z,97.17
2017-01-04T12:33:22.319Z,97.97
2017-01-04T12:34:22.308Z,99.02
2017-01-04T12:35:22.329Z,99.78
2017-01-04T12:36:22.292Z,99.99
2017-01-04T12:37:22.282Z,98.17
2017-01-04T12:38:22.274Z,95.12
2017-01-04T12:39:22.263Z,96.84
2017-01-04T12:40:22.253Z,98.45
2017-01-04T12:41:22.247Z,98.07
2017-01-04T12:42:22.235Z,97.41
2017-01-04T12:43:22.227Z,97.78
2017-01-04T12:44:22.219Z,95.89
2017-01-04T12:45:22.209Z,95.12
2017-01-04T12:46:22.199Z,96.26
2017-01-04T12:47:22.191Z,94.56
2017-01-04T12:48:22.182Z,95.27
2017-01-04T12:49:22.170Z,95.08
2017-01-04T12:50:22.163Z,95.94
2017-01-04T12:51:22.154Z,96.79
2017-01-04T12:52:22.145Z,95.94
2017-01-04T12:53:22.150Z,95.46